Time;durP1;ratioP1;P1;durP2;ratioP2;P2;SDS_P1;SDS_P2;PMS_P1;PMS_P2;Temp;Humidity;BMP_temperature;BMP_pressure;BME280_temperature;BME280_humidity;BME280_pressure;Samples;Min_cycle;Max_cycle;Signal;HPM_P1;HPM_P2
2022/06/05 00:02:02;;;;;;;10.97;10.07;;;22.00;69.20;;;;;;4954395;28;20500;-43
2022/06/05 00:04:31;;;;;;;9.60;8.80;;;22.00;69.40;;;;;;4970183;28;20552;-43
2022/06/05 00:07:12;;;;;;;9.53;8.83;;;22.00;69.50;;;;;;4969903;28;20446;-43
2022/06/05 00:10:04;;;;;;;10.43;9.50;;;21.90;69.60;;;;;;4981814;28;20538;-43
2022/06/05 00:12:42;;;;;;;10.33;9.43;;;21.90;69.60;;;;;;4952337;28;20454;-43
2022/06/05 00:15:10;;;;;;;10.53;9.73;;;21.90;69.60;;;;;;4954946;28;20941;-43
2022/06/05 00:17:36;;;;;;;11.10;10.20;;;21.90;69.60;;;;;;4969133;28;20998;-43
2022/06/05 00:20:05;;;;;;;9.37;8.63;;;21.90;69.70;;;;;;4952827;28;20466;-43
2022/06/05 00:22:32;;;;;;;9.80;8.80;;;21.80;69.80;;;;;;4969735;28;20565;-43
2022/06/05 00:24:58;;;;;;;11.23;10.27;;;21.80;69.80;;;;;;4956419;28;20505;-43
2022/06/05 00:27:28;;;;;;;10.93;10.03;;;21.80;69.90;;;;;;4969575;28;21057;-43
2022/06/05 00:30:11;;;;;;;9.90;9.20;;;21.70;69.90;;;;;;4969359;28;20461;-43
2022/06/05 00:32:43;;;;;;;9.77;8.83;;;21.70;70.20;;;;;;4969014;28;20548;-43
2022/06/05 00:35:16;;;;;;;10.63;9.60;;;21.70;70.30;;;;;;4954653;28;20473;-43
2022/06/05 00:38:02;;;;;;;10.30;9.50;;;21.70;70.40;;;;;;4969403;28;20557;-43
2022/06/05 00:41:05;;;;;;;10.63;9.70;;;21.70;70.30;;;;;;4969910;28;20461;-43
2022/06/05 00:43:31;;;;;;;10.33;9.43;;;21.60;70.30;;;;;;4966561;28;20463;-43
2022/06/05 00:45:58;;;;;;;10.43;9.43;;;21.60;70.40;;;;;;4967642;28;21066;-43
2022/06/05 00:48:26;;;;;;;9.90;9.10;;;21.60;70.40;;;;;;4968098;28;20466;-43
2022/06/05 00:50:53;;;;;;;10.73;9.73;;;21.60;70.40;;;;;;4969180;28;20557;-43
2022/06/05 00:53:19;;;;;;;9.77;8.87;;;21.50;70.50;;;;;;4945239;28;20902;-43
2022/06/05 00:55:49;;;;;;;10.40;9.60;;;21.50;70.50;;;;;;4950502;28;20556;-43
2022/06/05 00:58:17;;;;;;;10.03;9.07;;;21.50;70.80;;;;;;4968650;28;20545;-43
2022/06/05 01:00:48;;;;;;;10.07;9.17;;;21.40;71.00;;;;;;4950717;28;20482;-43
2022/06/05 01:03:16;;;;;;;10.67;9.77;;;21.40;71.20;;;;;;4969789;28;20971;-43
2022/06/05 01:05:43;;;;;;;11.20;10.30;;;21.40;71.40;;;;;;4950639;28;20524;-43
2022/06/05 01:08:12;;;;;;;11.07;10.07;;;21.30;71.40;;;;;;4968792;28;20601;-43
2022/06/05 01:11:06;;;;;;;10.27;9.37;;;21.30;71.50;;;;;;4966489;28;20469;-43
2022/06/05 01:14:04;;;;;;;10.27;9.40;;;21.30;71.40;;;;;;4947219;28;20474;-43
2022/06/05 01:16:48;;;;;;;10.53;9.73;;;21.30;71.40;;;;;;4968529;28;20589;-43
2022/06/05 01:19:38;;;;;;;10.43;9.57;;;21.30;71.40;;;;;;4968986;28;20462;-43
2022/06/05 01:22:29;;;;;;;11.23;10.33;;;21.30;71.50;;;;;;4967339;28;20944;-43
2022/06/05 01:25:18;;;;;;;10.40;9.50;;;21.30;71.40;;;;;;4968340;28;20959;-43
2022/06/05 01:27:53;;;;;;;10.10;9.20;;;21.30;71.40;;;;;;4968419;28;21026;-43
2022/06/05 01:30:23;;;;;;;11.00;10.10;;;21.20;71.40;;;;;;4967333;28;20461;-43
2022/06/05 01:33:19;;;;;;;10.40;9.60;;;21.20;71.30;;;;;;4952726;28;20552;-43
2022/06/05 01:36:00;;;;;;;12.50;11.40;;;21.20;71.20;;;;;;4968280;28;20462;-43
2022/06/05 01:38:35;;;;;;;10.30;9.50;;;21.20;71.20;;;;;;4969213;28;20442;-43
2022/06/05 01:41:12;;;;;;;10.40;9.50;;;21.20;71.20;;;;;;4967321;28;20556;-43
2022/06/05 01:43:44;;;;;;;10.27;9.37;;;21.20;71.10;;;;;;4949563;28;20883;-43
2022/06/05 01:46:33;;;;;;;11.00;10.10;;;21.20;71.30;;;;;;4968872;28;20462;-43
2022/06/05 01:49:27;;;;;;;11.20;10.20;;;21.20;71.40;;;;;;4967533;28;20534;-43
2022/06/05 01:52:23;;;;;;;10.63;9.70;;;21.10;71.50;;;;;;4967715;28;20457;-43
2022/06/05 01:55:02;;;;;;;10.20;9.40;;;21.10;71.30;;;;;;4934642;28;20466;-43
2022/06/05 01:57:30;;;;;;;10.33;9.53;;;21.10;71.30;;;;;;4952088;28;20545;-43
2022/06/05 02:00:06;;;;;;;9.80;9.00;;;21.10;71.10;;;;;;4962787;28;20500;-43
2022/06/05 02:02:39;;;;;;;9.57;8.87;;;21.10;71.10;;;;;;4966008;28;20541;-43
2022/06/05 02:05:11;;;;;;;10.33;9.43;;;21.00;71.10;;;;;;4951090;28;20497;-43
2022/06/05 02:07:48;;;;;;;9.70;9.00;;;21.00;71.10;;;;;;4968291;28;20537;-43
2022/06/05 02:10:22;;;;;;;9.40;8.70;;;21.00;71.00;;;;;;4966980;28;20820;-43
2022/06/05 02:12:49;;;;;;;9.83;9.03;;;21.00;71.00;;;;;;4969658;28;20458;-43
2022/06/05 02:15:16;;;;;;;10.37;8.93;;;21.00;71.00;;;;;;4967336;28;20458;-43
2022/06/05 02:17:44;;;;;;;10.13;9.23;;;21.00;70.90;;;;;;4952564;28;20943;-43
2022/06/05 02:20:11;;;;;;;10.07;9.37;;;21.00;70.90;;;;;;4968479;28;21049;-43
2022/06/05 02:22:43;;;;;;;10.77;9.87;;;21.00;70.90;;;;;;4967822;28;20469;-43
2022/06/05 02:25:11;;;;;;;9.47;8.67;;;21.00;70.90;;;;;;4966151;28;20497;-43
2022/06/05 02:27:38;;;;;;;9.67;8.83;;;21.00;70.90;;;;;;4968336;28;20465;-43
2022/06/05 02:30:06;;;;;;;8.40;7.80;;;21.00;70.90;;;;;;4968717;28;20454;-43
2022/06/05 02:32:48;;;;;;;10.20;9.30;;;21.00;70.90;;;;;;4967023;28;20481;-43
2022/06/05 02:35:43;;;;;;;9.23;8.43;;;21.00;71.00;;;;;;4968101;28;20454;-43
2022/06/05 02:38:19;;;;;;;9.40;8.50;;;21.00;70.80;;;;;;4965814;28;20464;-43
2022/06/05 02:41:06;;;;;;;8.93;8.23;;;21.00;70.70;;;;;;4946542;28;20470;-43
2022/06/05 02:47:02;;;;;;;11.10;8.73;;;21.00;70.70;;;;;;4968293;28;21010;-47
2022/06/05 02:49:39;;;;;;;9.77;8.63;;;20.90;70.70;;;;;;4955491;28;20452;-43
2022/06/05 02:52:07;;;;;;;9.43;8.73;;;20.90;70.70;;;;;;4946956;28;20460;-43
2022/06/05 02:54:40;;;;;;;8.87;8.17;;;20.90;70.70;;;;;;4971258;28;20470;-43
2022/06/05 02:57:07;;;;;;;8.60;8.00;;;20.90;70.70;;;;;;4971849;28;20983;-43
2022/06/05 02:59:34;;;;;;;9.27;8.60;;;20.90;70.70;;;;;;4953966;28;20494;-43
2022/06/05 03:04:46;;;;;;;8.87;8.17;;;20.90;70.80;;;;;;4971327;28;20580;-43
2022/06/05 03:07:13;;;;;;;9.37;8.60;;;20.80;70.90;;;;;;4969462;28;20454;-43
2022/06/05 03:09:40;;;;;;;8.70;8.00;;;20.80;70.90;;;;;;4952342;28;20458;-43
2022/06/05 03:12:07;;;;;;;8.97;8.27;;;20.80;71.00;;;;;;4971231;28;20947;-43
2022/06/05 03:14:34;;;;;;;9.30;8.50;;;20.80;71.00;;;;;;4954709;28;20470;-43
2022/06/05 03:17:01;;;;;;;9.43;8.57;;;20.70;71.00;;;;;;4971183;28;20565;-43
2022/06/05 03:19:27;;;;;;;9.70;9.00;;;20.70;71.10;;;;;;4970731;28;20461;-43
2022/06/05 03:21:54;;;;;;;9.30;8.50;;;20.70;71.10;;;;;;4969863;28;21118;-43
2022/06/05 03:24:21;;;;;;;9.93;8.90;;;20.70;71.20;;;;;;4970906;28;20869;-43
2022/06/05 03:26:48;;;;;;;9.27;8.57;;;20.60;71.30;;;;;;4970775;28;20960;-43
2022/06/05 03:29:15;;;;;;;9.60;8.83;;;20.70;71.20;;;;;;4969703;28;20462;-43
2022/06/05 03:31:41;;;;;;;9.40;8.60;;;20.70;71.10;;;;;;4970129;28;20967;-43
2022/06/05 03:34:08;;;;;;;10.07;9.17;;;20.70;71.10;;;;;;4970732;28;20789;-43
2022/06/05 03:36:35;;;;;;;9.47;8.60;;;20.70;71.20;;;;;;4970561;28;20554;-43
2022/06/05 03:39:02;;;;;;;9.60;8.80;;;20.70;71.20;;;;;;4970970;28;20457;-43
2022/06/05 03:41:29;;;;;;;9.37;8.57;;;20.70;71.20;;;;;;4955346;28;20575;-43
2022/06/05 03:43:57;;;;;;;10.73;9.70;;;20.70;71.20;;;;;;4952370;28;20464;-43
2022/06/05 03:46:24;;;;;;;9.27;8.57;;;20.70;71.20;;;;;;4969706;28;20521;-43
2022/06/05 03:48:50;;;;;;;10.20;9.30;;;20.70;71.20;;;;;;4954735;28;20997;-43
2022/06/05 03:51:20;;;;;;;9.83;9.10;;;20.70;71.20;;;;;;4971058;28;20488;-43
2022/06/05 03:53:47;;;;;;;8.37;7.67;;;20.60;71.30;;;;;;4971026;28;20466;-43
2022/06/05 03:56:17;;;;;;;9.50;8.70;;;20.70;71.30;;;;;;4970346;28;20549;-43
2022/06/05 03:58:45;;;;;;;10.07;9.27;;;20.70;71.50;;;;;;4971434;28;20950;-43
2022/06/05 04:01:14;;;;;;;10.00;9.10;;;20.70;71.30;;;;;;4968357;28;21222;-43
2022/06/05 04:03:42;;;;;;;9.57;8.87;;;20.70;71.40;;;;;;4969664;28;20787;-43
2022/06/05 04:06:19;;;;;;;9.70;8.90;;;20.60;71.50;;;;;;4969598;28;20489;-43
2022/06/05 04:08:47;;;;;;;11.10;10.20;;;20.60;71.50;;;;;;4964996;28;20489;-43
2022/06/05 04:11:20;;;;;;;10.33;9.53;;;20.70;71.50;;;;;;4970088;28;20909;-43
2022/06/05 04:13:47;;;;;;;10.30;9.40;;;20.70;71.20;;;;;;4969757;28;20529;-43
2022/06/05 04:16:20;;;;;;;9.50;8.70;;;20.70;71.10;;;;;;4969475;28;20469;-43
2022/06/05 04:18:48;;;;;;;10.67;9.67;;;20.60;71.20;;;;;;4971002;28;20505;-42
2022/06/05 04:21:21;;;;;;;10.20;9.30;;;20.60;71.40;;;;;;4969995;28;20466;-42
2022/06/05 04:23:50;;;;;;;10.33;9.33;;;20.60;71.30;;;;;;4969159;28;20472;-42
2022/06/05 04:26:20;;;;;;;9.40;8.70;;;20.60;71.40;;;;;;4969659;28;20490;-42
2022/06/05 04:28:47;;;;;;;9.90;9.10;;;20.60;71.40;;;;;;4970225;28;20454;-42
2022/06/05 04:31:27;;;;;;;10.40;9.30;;;20.70;71.50;;;;;;4970325;28;20450;-42
2022/06/05 04:33:56;;;;;;;9.03;8.40;;;20.70;71.40;;;;;;4961737;28;20506;-42
2022/06/05 04:36:23;;;;;;;10.70;9.67;;;20.60;71.50;;;;;;4969386;28;21253;-43
2022/06/05 04:38:50;;;;;;;11.53;9.40;;;20.60;71.60;;;;;;4943520;28;20472;-42
2022/06/05 04:41:21;;;;;;;11.10;10.10;;;20.60;71.60;;;;;;4948144;28;20450;-42
2022/06/05 04:43:49;;;;;;;11.20;10.20;;;20.60;71.60;;;;;;4967727;28;20477;-42
2022/06/05 04:46:20;;;;;;;10.60;9.77;;;20.60;71.60;;;;;;4961445;28;20494;-42
2022/06/05 04:48:48;;;;;;;10.57;9.77;;;20.60;71.70;;;;;;4968093;28;20584;-42
2022/06/05 04:51:15;;;;;;;9.83;9.10;;;20.60;71.80;;;;;;4968194;28;20529;-42
2022/06/05 04:53:43;;;;;;;9.87;8.97;;;20.60;71.80;;;;;;4967900;28;20462;-42
2022/06/05 04:56:14;;;;;;;10.53;9.63;;;20.60;72.00;;;;;;4968320;28;20839;-42
2022/06/05 04:58:41;;;;;;;10.37;9.47;;;20.60;72.20;;;;;;4968184;28;21043;-43
2022/06/05 05:01:14;;;;;;;9.67;8.87;;;20.60;72.10;;;;;;4968640;28;20502;-42
2022/06/05 05:03:41;;;;;;;9.83;9.00;;;20.60;72.10;;;;;;4967784;28;20562;-42
2022/06/05 05:06:09;;;;;;;11.10;10.20;;;20.60;72.30;;;;;;4963720;28;20842;-42
2022/06/05 05:08:36;;;;;;;10.70;9.63;;;20.60;72.40;;;;;;4950317;28;20605;-43
2022/06/05 05:11:03;;;;;;;10.27;9.27;;;20.60;72.40;;;;;;4950729;28;20450;-43
2022/06/05 05:13:30;;;;;;;10.07;9.37;;;20.60;72.50;;;;;;4969759;28;20492;-43
2022/06/05 05:15:58;;;;;;;10.93;9.93;;;20.60;72.60;;;;;;4952483;28;20547;-43
2022/06/05 05:18:25;;;;;;;10.87;9.87;;;20.50;72.60;;;;;;4968648;28;20841;-43
2022/06/05 05:20:52;;;;;;;10.80;9.63;;;20.50;72.70;;;;;;4958222;28;21027;-43
2022/06/05 05:23:19;;;;;;;11.07;9.50;;;20.50;73.00;;;;;;4948153;28;20557;-43
2022/06/05 05:25:47;;;;;;;10.17;9.10;;;20.50;73.10;;;;;;4953041;28;20489;-43
2022/06/05 05:28:16;;;;;;;11.00;10.07;;;20.50;73.20;;;;;;4952900;28;20518;-43
2022/06/05 05:30:44;;;;;;;10.37;9.47;;;20.50;73.30;;;;;;4969619;28;20529;-43
2022/06/05 05:33:13;;;;;;;11.03;10.13;;;20.50;73.50;;;;;;4952524;28;20466;-43
2022/06/05 05:35:40;;;;;;;11.97;10.87;;;20.50;73.30;;;;;;4968078;28;20454;-43
2022/06/05 05:38:07;;;;;;;11.00;10.10;;;20.50;73.60;;;;;;4954976;28;20554;-43
2022/06/05 05:43:19;;;;;;;11.23;10.33;;;20.50;73.50;;;;;;4968772;28;21010;-45
2022/06/05 05:45:46;;;;;;;11.83;10.83;;;20.50;73.40;;;;;;4951680;28;20490;-45
2022/06/05 05:48:13;;;;;;;11.60;10.50;;;20.50;73.40;;;;;;4969495;28;20466;-45
2022/06/05 05:50:45;;;;;;;11.50;10.50;;;20.40;73.50;;;;;;4956702;28;20824;-44
2022/06/05 05:53:12;;;;;;;11.13;10.13;;;20.40;73.70;;;;;;4971117;28;20462;-44
2022/06/05 05:55:39;;;;;;;9.83;9.00;;;20.40;73.90;;;;;;4958997;28;20493;-44
2022/06/05 05:58:05;;;;;;;12.03;11.00;;;20.30;73.90;;;;;;4956481;28;20541;-44
2022/06/05 06:00:33;;;;;;;10.70;9.70;;;20.40;74.40;;;;;;4955727;28;20481;-44
2022/06/05 06:03:00;;;;;;;12.57;11.53;;;20.40;74.90;;;;;;4970529;28;20897;-44
2022/06/05 06:05:34;;;;;;;11.10;10.23;;;20.40;75.10;;;;;;4956613;28;20493;-44
2022/06/05 06:08:01;;;;;;;12.47;11.50;;;20.30;75.40;;;;;;4971505;28;20987;-44
2022/06/05 06:10:28;;;;;;;13.63;12.53;;;20.30;76.70;;;;;;4954635;28;20490;-43
2022/06/05 06:12:55;;;;;;;11.27;10.37;;;20.30;77.20;;;;;;4970311;28;20505;-43
2022/06/05 06:15:22;;;;;;;11.70;10.70;;;20.30;77.60;;;;;;4970096;28;20458;-44
2022/06/05 06:17:49;;;;;;;12.27;11.17;;;20.40;77.60;;;;;;4971220;28;20512;-44
2022/06/05 06:20:16;;;;;;;12.10;11.20;;;20.40;77.40;;;;;;4969462;28;20494;-43
2022/06/05 06:22:42;;;;;;;12.00;10.90;;;20.30;77.40;;;;;;4968374;28;20470;-44
2022/06/05 06:25:11;;;;;;;11.83;10.83;;;20.30;77.60;;;;;;4951109;28;20581;-42
2022/06/05 06:27:39;;;;;;;11.70;10.70;;;20.30;77.70;;;;;;4967403;28;20760;-42
2022/06/05 06:30:10;;;;;;;12.27;10.57;;;20.20;77.70;;;;;;4968333;28;20529;-42
2022/06/05 06:32:37;;;;;;;14.70;11.27;;;20.20;77.70;;;;;;4965256;28;20544;-42
2022/06/05 06:35:04;;;;;;;12.23;11.23;;;20.20;77.60;;;;;;4968100;28;20693;-42
2022/06/05 06:37:31;;;;;;;13.53;12.30;;;20.20;77.60;;;;;;4938353;28;20553;-42
2022/06/05 06:39:58;;;;;;;13.20;11.90;;;20.20;77.70;;;;;;4955330;28;20442;-42
2022/06/05 06:42:25;;;;;;;13.17;11.90;;;20.20;77.90;;;;;;4968108;28;20468;-42
2022/06/05 06:44:51;;;;;;;14.33;13.00;;;20.20;78.20;;;;;;4967975;28;20458;-42
2022/06/05 06:47:18;;;;;;;14.03;12.63;;;20.20;78.20;;;;;;4966826;28;20508;-42
2022/06/05 06:49:45;;;;;;;14.53;13.13;;;20.30;78.20;;;;;;4967662;28;20872;-42
2022/06/05 06:52:12;;;;;;;13.90;12.67;;;20.30;77.70;;;;;;4967330;28;20542;-42
2022/06/05 06:54:39;;;;;;;13.53;12.13;;;20.30;77.70;;;;;;4967555;28;20470;-42
2022/06/05 06:57:07;;;;;;;14.10;12.90;;;20.30;77.90;;;;;;4949380;28;20461;-42
2022/06/05 06:59:34;;;;;;;12.23;11.00;;;20.40;77.60;;;;;;4968039;28;20580;-42
2022/06/05 07:02:01;;;;;;;12.30;11.30;;;20.40;77.60;;;;;;4948985;28;22078;-42
2022/06/05 07:04:28;;;;;;;12.80;11.60;;;20.40;77.70;;;;;;4968756;28;20892;-42
2022/06/05 07:06:54;;;;;;;13.80;12.50;;;20.40;77.70;;;;;;4948363;28;20495;-42
2022/06/05 07:09:21;;;;;;;12.87;11.77;;;20.40;77.60;;;;;;4968075;28;20501;-42
2022/06/05 07:11:48;;;;;;;12.57;11.47;;;20.40;77.40;;;;;;4968593;28;20467;-43
2022/06/05 07:14:16;;;;;;;13.40;12.13;;;20.40;77.40;;;;;;4968977;28;20459;-43
2022/06/05 07:16:43;;;;;;;13.03;11.93;;;20.50;77.40;;;;;;4949308;28;20552;-42
2022/06/05 07:19:10;;;;;;;12.57;11.57;;;20.50;77.40;;;;;;4968988;28;20453;-43
2022/06/05 07:21:37;;;;;;;13.23;12.00;;;20.60;77.30;;;;;;4966726;28;20862;-43
2022/06/05 07:24:04;;;;;;;12.50;11.50;;;20.60;77.50;;;;;;4969604;28;20958;-42
2022/06/05 07:26:32;;;;;;;13.50;12.43;;;20.60;77.30;;;;;;4963753;28;20596;-42
2022/06/05 07:28:59;;;;;;;14.30;13.10;;;20.60;77.00;;;;;;4967835;28;20468;-42
2022/06/05 07:31:29;;;;;;;11.03;9.93;;;20.60;77.00;;;;;;4953800;28;20457;-42
2022/06/05 07:33:58;;;;;;;12.53;11.53;;;20.70;77.00;;;;;;4967928;28;20549;-42
2022/06/05 07:36:26;;;;;;;16.77;11.67;;;20.70;77.30;;;;;;4970129;28;20470;-43
2022/06/05 07:38:55;;;;;;;16.33;11.20;;;20.70;77.20;;;;;;4969640;28;20470;-42
2022/06/05 07:41:30;;;;;;;11.40;10.30;;;20.80;77.00;;;;;;4971207;28;20542;-43
2022/06/05 07:43:59;;;;;;;11.30;10.20;;;20.80;77.20;;;;;;4969048;28;20462;-42
2022/06/05 07:46:26;;;;;;;12.23;11.13;;;20.70;77.20;;;;;;4960237;28;21782;-42
2022/06/05 07:48:53;;;;;;;12.70;11.50;;;20.80;77.00;;;;;;4970800;28;20595;-43
2022/06/05 07:54:34;;;;;;;11.60;10.60;;;20.80;76.70;;;;;;4968095;28;20519;-42
2022/06/05 07:57:10;;;;;;;11.17;10.27;;;20.80;76.70;;;;;;4964723;28;20458;-43
2022/06/05 07:59:40;;;;;;;12.03;10.90;;;20.80;76.60;;;;;;4952748;28;20485;-43
2022/06/05 08:02:18;;;;;;;11.53;10.47;;;20.70;76.70;;;;;;4968644;28;20481;-43
2022/06/05 08:04:46;;;;;;;10.73;9.73;;;20.70;76.50;;;;;;4968496;28;20466;-43
2022/06/05 08:07:16;;;;;;;12.30;11.10;;;20.70;76.60;;;;;;4967015;28;21209;-43
2022/06/05 08:09:43;;;;;;;11.80;10.70;;;20.70;76.60;;;;;;4968722;28;20446;-43
2022/06/05 08:12:12;;;;;;;11.80;10.80;;;20.70;76.30;;;;;;4969026;28;20465;-43
2022/06/05 08:14:41;;;;;;;10.83;9.93;;;20.70;76.40;;;;;;4969510;28;20533;-42
2022/06/05 08:17:11;;;;;;;12.07;10.93;;;20.60;76.40;;;;;;4972480;28;20472;-44
2022/06/05 08:19:40;;;;;;;11.47;10.40;;;20.60;76.20;;;;;;4972048;28;20468;-44
2022/06/05 08:22:08;;;;;;;11.33;10.33;;;20.60;76.10;;;;;;4971848;28;20466;-44
2022/06/05 08:24:35;;;;;;;12.30;11.20;;;20.60;76.30;;;;;;4972482;28;20990;-44
2022/06/05 08:27:10;;;;;;;12.17;10.97;;;20.60;76.30;;;;;;4956361;28;20499;-44
2022/06/05 08:29:37;;;;;;;12.13;10.93;;;20.60;76.20;;;;;;4973646;28;20959;-44
2022/06/05 08:32:06;;;;;;;12.70;11.60;;;20.60;76.30;;;;;;4958554;28;20891;-44
2022/06/05 08:34:33;;;;;;;11.53;10.50;;;20.60;76.30;;;;;;4973874;28;20510;-44
2022/06/05 08:42:36;;;;;;;11.63;10.63;;;20.70;76.70;;;;;;4975531;28;20554;-44
2022/06/05 08:45:23;;;;;;;12.40;11.30;;;20.70;76.80;;;;;;4974833;28;20943;-44
2022/06/05 08:48:15;;;;;;;12.83;11.77;;;20.70;76.70;;;;;;4958865;28;20490;-44
2022/06/05 08:50:54;;;;;;;11.73;10.63;;;20.70;76.60;;;;;;4970916;28;21313;-44
2022/06/05 08:53:32;;;;;;;12.80;11.53;;;20.80;76.50;;;;;;4972532;28;20529;-44
2022/06/05 08:56:00;;;;;;;13.47;12.17;;;20.80;76.40;;;;;;4973145;28;20974;-44
2022/06/05 08:58:47;;;;;;;12.03;11.03;;;20.80;76.40;;;;;;4956773;28;20466;-43
2022/06/05 09:01:26;;;;;;;11.97;10.73;;;20.90;76.50;;;;;;4953837;28;20489;-43
2022/06/05 09:04:05;;;;;;;12.63;11.43;;;20.90;76.40;;;;;;4954521;28;20545;-44
2022/06/05 09:06:36;;;;;;;11.97;10.87;;;21.00;76.10;;;;;;4972053;28;20490;-44
2022/06/05 09:09:10;;;;;;;12.70;11.70;;;21.00;76.00;;;;;;4957517;28;20462;-44
2022/06/05 09:11:48;;;;;;;13.93;12.73;;;21.00;76.00;;;;;;4974141;28;20552;-44
2022/06/05 09:14:37;;;;;;;12.77;11.47;;;21.00;76.00;;;;;;4973138;28;20461;-44
2022/06/05 09:17:15;;;;;;;13.17;11.77;;;21.00;76.00;;;;;;4972745;28;20461;-43
2022/06/05 09:19:43;;;;;;;13.60;12.47;;;21.00;76.00;;;;;;4956585;28;20561;-44
2022/06/05 09:22:30;;;;;;;13.00;11.80;;;21.00;75.90;;;;;;4973840;28;20557;-44
2022/06/05 09:25:14;;;;;;;13.20;12.20;;;21.00;75.90;;;;;;4972480;28;20471;-44
2022/06/05 09:27:59;;;;;;;13.50;12.17;;;20.90;76.00;;;;;;4972975;28;20485;-44
2022/06/05 09:30:47;;;;;;;13.33;12.07;;;20.90;76.10;;;;;;4973443;28;20450;-44
2022/06/05 09:33:25;;;;;;;13.07;11.70;;;20.90;76.10;;;;;;4973246;28;20553;-44
2022/06/05 09:35:58;;;;;;;18.47;15.27;;;20.90;76.50;;;;;;4959051;28;20556;-44
2022/06/05 09:38:29;;;;;;;16.60;15.00;;;20.80;76.50;;;;;;4957840;28;20850;-44
2022/06/05 09:41:11;;;;;;;15.53;14.23;;;20.80;76.40;;;;;;4972348;28;20975;-44
2022/06/05 09:43:41;;;;;;;13.73;12.37;;;20.80;76.40;;;;;;4972265;28;20514;-44
2022/06/05 09:46:14;;;;;;;12.17;11.20;;;20.90;76.30;;;;;;4973623;28;20567;-44
2022/06/05 09:48:47;;;;;;;12.50;11.40;;;20.90;76.30;;;;;;4972060;28;20470;-44
2022/06/05 09:51:17;;;;;;;13.30;12.20;;;20.90;76.30;;;;;;4957450;28;20474;-44
2022/06/05 09:54:06;;;;;;;11.57;10.67;;;20.90;76.30;;;;;;4973303;28;20521;-44
2022/06/05 09:59:45;;;;;;;13.97;12.63;;;21.00;76.60;;;;;;4971472;28;20573;-44
2022/06/05 10:02:15;;;;;;;18.50;16.80;;;21.00;76.20;;;;;;4973369;28;20480;-44
2022/06/05 10:04:43;;;;;;;20.27;18.47;;;21.00;76.30;;;;;;4972076;28;20843;-44
2022/06/05 10:07:39;;;;;;;25.50;23.07;;;21.00;76.20;;;;;;4954946;28;20952;-44
2022/06/05 10:10:17;;;;;;;16.63;15.13;;;21.00;76.10;;;;;;4958040;28;20469;-44
2022/06/05 10:12:58;;;;;;;14.60;13.17;;;21.10;75.90;;;;;;4973403;28;20466;-44
2022/06/05 10:15:31;;;;;;;11.93;10.90;;;21.20;75.60;;;;;;4973140;28;20851;-44
2022/06/05 10:18:09;;;;;;;13.23;12.03;;;21.20;75.30;;;;;;4972205;28;20462;-44
2022/06/05 10:20:56;;;;;;;14.73;12.47;;;21.30;75.10;;;;;;4972035;28;20537;-44
2022/06/05 10:23:25;;;;;;;13.60;12.40;;;21.30;75.20;;;;;;4971159;28;20465;-44
2022/06/05 10:26:02;;;;;;;14.13;13.00;;;21.40;75.10;;;;;;4973814;28;20554;-44
2022/06/05 10:28:38;;;;;;;12.20;10.90;;;21.50;75.20;;;;;;4952355;28;20568;-44
2022/06/05 10:31:15;;;;;;;13.77;12.57;;;21.60;75.10;;;;;;4971994;28;20457;-44
2022/06/05 10:33:57;;;;;;;11.77;10.77;;;21.90;74.30;;;;;;4939164;28;20457;-44
2022/06/05 10:36:58;;;;;;;13.70;12.50;;;22.10;73.90;;;;;;4953447;28;20489;-44
2022/06/05 10:39:41;;;;;;;11.77;10.87;;;22.30;72.30;;;;;;4971317;28;20468;-44
2022/06/05 10:42:45;;;;;;;11.30;10.30;;;22.40;72.10;;;;;;4950999;28;20450;-44
2022/06/05 10:45:39;;;;;;;11.17;10.17;;;22.50;71.10;;;;;;4958566;28;20562;-44
2022/06/05 10:48:39;;;;;;;10.87;9.93;;;22.60;70.60;;;;;;4970708;28;20538;-44
2022/06/05 10:51:24;;;;;;;12.90;10.70;;;22.60;70.30;;;;;;4968774;28;20463;-43
2022/06/05 10:53:59;;;;;;;11.60;10.60;;;22.70;70.10;;;;;;4967646;28;20467;-43
2022/06/05 10:56:36;;;;;;;11.97;10.97;;;22.70;70.40;;;;;;4953935;28;20459;-43
2022/06/05 10:59:16;;;;;;;11.47;10.33;;;22.80;70.30;;;;;;4967949;28;20836;-44
2022/06/05 11:02:19;;;;;;;13.10;11.90;;;22.70;70.30;;;;;;4967033;28;21119;-43
2022/06/05 11:05:26;;;;;;;11.63;10.63;;;22.70;70.40;;;;;;4942930;28;20452;-43
2022/06/05 11:07:58;;;;;;;13.10;11.20;;;22.60;70.50;;;;;;4967205;28;20563;-43
2022/06/05 11:13:39;;;;;;;11.13;10.13;;;22.60;70.50;;;;;;4954661;28;20529;-44
2022/06/05 11:16:31;;;;;;;12.67;11.67;;;22.50;70.50;;;;;;4971953;28;20461;-44
2022/06/05 11:19:08;;;;;;;12.97;9.90;;;22.40;70.50;;;;;;4972352;28;20445;-44
2022/06/05 11:21:36;;;;;;;12.70;11.50;;;22.40;70.80;;;;;;4970036;28;20465;-43
2022/06/05 11:24:09;;;;;;;13.13;11.97;;;22.30;71.00;;;;;;4971832;28;20461;-43
2022/06/05 11:26:47;;;;;;;11.40;10.40;;;22.30;71.20;;;;;;4970805;28;20683;-43
2022/06/05 11:29:39;;;;;;;12.90;11.80;;;22.30;71.50;;;;;;4950999;28;20467;-43
2022/06/05 11:32:33;;;;;;;12.37;11.37;;;22.30;71.60;;;;;;4971956;28;20529;-43
2022/06/05 11:35:48;;;;;;;12.47;11.37;;;22.40;71.80;;;;;;4970655;28;20497;-43
2022/06/05 11:38:23;;;;;;;13.20;12.07;;;22.30;71.90;;;;;;4938766;28;20457;-44
2022/06/05 11:41:01;;;;;;;13.50;12.40;;;22.30;72.40;;;;;;4951166;28;20552;-43
2022/06/05 11:43:32;;;;;;;15.00;13.70;;;22.30;72.40;;;;;;4970417;28;20515;-43
2022/06/05 11:46:30;;;;;;;14.30;13.00;;;22.30;72.60;;;;;;4971065;28;20453;-43
2022/06/05 11:49:46;;;;;;;14.67;13.37;;;22.20;73.30;;;;;;4970999;28;20529;-43
2022/06/05 11:52:28;;;;;;;13.73;12.47;;;22.20;73.70;;;;;;4912136;28;20484;-43
2022/06/05 11:55:01;;;;;;;15.37;13.97;;;22.20;74.00;;;;;;4971202;28;20450;-44
2022/06/05 11:57:33;;;;;;;15.90;14.30;;;22.10;74.20;;;;;;4952764;28;20461;-44
2022/06/05 12:00:15;;;;;;;14.60;13.30;;;22.10;74.70;;;;;;4969081;28;20636;-43
2022/06/05 12:02:59;;;;;;;16.20;14.70;;;22.00;74.70;;;;;;4970398;28;20899;-44
2022/06/05 12:05:47;;;;;;;15.13;13.60;;;22.00;75.00;;;;;;4968021;28;21203;-43
2022/06/05 12:08:21;;;;;;;16.53;14.90;;;22.00;75.30;;;;;;4969020;28;20994;-43
2022/06/05 12:11:19;;;;;;;15.07;13.60;;;21.90;75.60;;;;;;4971726;28;20552;-43
2022/06/05 12:13:51;;;;;;;16.10;14.60;;;21.90;75.90;;;;;;4940156;28;21014;-43
2022/06/05 12:16:33;;;;;;;15.43;13.93;;;21.90;76.20;;;;;;4970514;28;20544;-43
2022/06/05 12:19:39;;;;;;;13.77;12.57;;;21.90;76.10;;;;;;4969522;28;20457;-43
2022/06/05 12:22:15;;;;;;;16.60;14.90;;;21.90;76.00;;;;;;4928661;28;20492;-43
2022/06/05 12:25:14;;;;;;;14.90;13.40;;;21.90;76.10;;;;;;4969225;28;20464;-43
2022/06/05 12:27:50;;;;;;;15.40;14.00;;;22.00;76.30;;;;;;4963896;28;20499;-43
2022/06/05 12:30:29;;;;;;;15.20;13.70;;;22.00;76.00;;;;;;4966685;28;20905;-43
2022/06/05 12:33:12;;;;;;;14.80;13.40;;;22.10;75.90;;;;;;4969889;28;20524;-43
2022/06/05 12:35:44;;;;;;;14.90;13.40;;;22.10;75.70;;;;;;4970343;28;20858;-43
2022/06/05 12:38:29;;;;;;;14.70;13.00;;;22.20;75.40;;;;;;4966688;28;20466;-43
2022/06/05 12:41:15;;;;;;;14.10;12.90;;;22.30;74.80;;;;;;4951806;28;20986;-43
2022/06/05 12:44:42;;;;;;;13.00;11.90;;;22.40;74.40;;;;;;4968440;28;20805;-43
2022/06/05 12:47:43;;;;;;;13.20;12.03;;;22.50;74.40;;;;;;4930040;29;20498;-43
2022/06/05 12:50:40;;;;;;;12.40;11.13;;;22.60;74.30;;;;;;4910434;29;20452;-43
2022/06/05 12:53:07;;;;;;;12.57;11.40;;;22.70;74.00;;;;;;4964598;28;20464;-42
2022/06/05 12:56:07;;;;;;;14.07;12.67;;;22.80;73.70;;;;;;4970417;28;20453;-42
2022/06/05 12:58:47;;;;;;;14.53;13.40;;;22.90;72.90;;;;;;4968069;28;21037;-42
2022/06/05 13:01:20;;;;;;;14.30;13.00;;;22.80;72.90;;;;;;4969350;28;20476;-43
2022/06/05 13:04:19;;;;;;;13.70;12.50;;;22.80;73.20;;;;;;4969199;28;20503;-43
2022/06/05 13:06:51;;;;;;;13.97;12.77;;;22.90;73.20;;;;;;4930519;28;20565;-43
2022/06/05 13:09:44;;;;;;;14.33;13.13;;;22.80;73.40;;;;;;4968486;28;20461;-43
2022/06/05 13:12:10;;;;;;;14.97;13.67;;;22.80;73.60;;;;;;4970807;28;20460;-43
2022/06/05 13:14:59;;;;;;;17.07;15.57;;;22.70;73.90;;;;;;4970577;28;20461;-42
2022/06/05 13:18:01;;;;;;;17.07;15.57;;;22.80;73.90;;;;;;4968520;28;20446;-42
2022/06/05 13:20:38;;;;;;;16.60;15.10;;;22.70;73.80;;;;;;4951828;28;20455;-42
2022/06/05 13:23:34;;;;;;;18.10;16.60;;;22.70;73.90;;;;;;4965395;28;20954;-42
2022/06/05 13:26:38;;;;;;;17.27;15.67;;;22.60;74.10;;;;;;4968114;28;21019;-42
2022/06/05 13:29:11;;;;;;;16.73;15.17;;;22.60;74.20;;;;;;4969779;28;20532;-42
2022/06/05 13:32:09;;;;;;;15.93;14.57;;;22.60;74.40;;;;;;4966520;28;20556;-43
2022/06/05 13:35:26;;;;;;;17.57;16.00;;;22.50;74.60;;;;;;4969236;28;20456;-43
2022/06/05 13:38:11;;;;;;;21.53;19.60;;;22.60;75.50;;;;;;4965054;28;20821;-42